sensor_id;sensor_type;location;lat;lon;timestamp;P1;durP1;ratioP1;P2;durP2;ratioP2
43527;SDS011;52359;42.658;23.320;2023-05-29T00:00:18;8.77;;;3.78;;
43527;SDS011;52359;42.658;23.320;2023-05-29T00:02:46;12.93;;;4.30;;
43527;SDS011;52359;42.658;23.320;2023-05-29T00:05:12;13.73;;;4.95;;
43527;SDS011;52359;42.658;23.320;2023-05-29T00:07:39;8.52;;;5.28;;
43527;SDS011;52359;42.658;23.320;2023-05-29T00:10:05;9.02;;;5.03;;
43527;SDS011;52359;42.658;23.320;2023-05-29T00:12:32;8.52;;;4.63;;
43527;SDS011;52359;42.658;23.320;2023-05-29T00:14:58;7.82;;;4.25;;
43527;SDS011;52359;42.658;23.320;2023-05-29T00:17:24;9.52;;;4.72;;
43527;SDS011;52359;42.658;23.320;2023-05-29T00:19:50;9.07;;;4.10;;
43527;SDS011;52359;42.658;23.320;2023-05-29T00:22:16;7.15;;;4.35;;
43527;SDS011;52359;42.658;23.320;2023-05-29T00:24:42;12.32;;;4.57;;
43527;SDS011;52359;42.658;23.320;2023-05-29T00:27:08;9.50;;;4.65;;
43527;SDS011;52359;42.658;23.320;2023-05-29T00:29:34;13.15;;;4.45;;
43527;SDS011;52359;42.658;23.320;2023-05-29T00:32:01;6.93;;;4.72;;
43527;SDS011;52359;42.658;23.320;2023-05-29T00:34:27;8.43;;;4.18;;
43527;SDS011;52359;42.658;23.320;2023-05-29T00:36:53;7.50;;;4.70;;
43527;SDS011;52359;42.658;23.320;2023-05-29T00:39:22;8.65;;;4.80;;
43527;SDS011;52359;42.658;23.320;2023-05-29T00:41:48;9.55;;;4.65;;
43527;SDS011;52359;42.658;23.320;2023-05-29T00:44:17;10.95;;;5.18;;
43527;SDS011;52359;42.658;23.320;2023-05-29T00:46:43;8.65;;;4.82;;
43527;SDS011;52359;42.658;23.320;2023-05-29T00:49:09;12.35;;;5.78;;
43527;SDS011;52359;42.658;23.320;2023-05-29T00:51:36;8.30;;;5.35;;
43527;SDS011;52359;42.658;23.320;2023-05-29T00:54:03;11.70;;;5.60;;
43527;SDS011;52359;42.658;23.320;2023-05-29T00:56:30;12.25;;;6.18;;
43527;SDS011;52359;42.658;23.320;2023-05-29T00:58:56;12.50;;;6.22;;
43527;SDS011;52359;42.658;23.320;2023-05-29T01:01:22;9.02;;;5.68;;
43527;SDS011;52359;42.658;23.320;2023-05-29T01:03:49;11.52;;;6.32;;
43527;SDS011;52359;42.658;23.320;2023-05-29T01:06:18;11.82;;;6.65;;
43527;SDS011;52359;42.658;23.320;2023-05-29T01:08:45;7.53;;;5.68;;
43527;SDS011;52359;42.658;23.320;2023-05-29T01:13:57;14.95;;;6.25;;
43527;SDS011;52359;42.658;23.320;2023-05-29T01:16:46;7.18;;;4.70;;
43527;SDS011;52359;42.658;23.320;2023-05-29T01:26:48;13.10;;;6.00;;
43527;SDS011;52359;42.658;23.320;2023-05-29T01:29:20;16.20;;;5.07;;
43527;SDS011;52359;42.658;23.320;2023-05-29T01:31:48;14.27;;;5.32;;
43527;SDS011;52359;42.658;23.320;2023-05-29T01:34:15;6.75;;;4.85;;
43527;SDS011;52359;42.658;23.320;2023-05-29T01:36:41;6.93;;;4.95;;
43527;SDS011;52359;42.658;23.320;2023-05-29T01:39:07;9.60;;;5.35;;
43527;SDS011;52359;42.658;23.320;2023-05-29T01:41:34;8.50;;;5.35;;
43527;SDS011;52359;42.658;23.320;2023-05-29T01:44:02;8.43;;;5.57;;
43527;SDS011;52359;42.658;23.320;2023-05-29T01:46:29;9.07;;;6.03;;
43527;SDS011;52359;42.658;23.320;2023-05-29T01:48:55;9.85;;;5.95;;
43527;SDS011;52359;42.658;23.320;2023-05-29T01:51:21;12.52;;;5.68;;
43527;SDS011;52359;42.658;23.320;2023-05-29T01:53:47;8.52;;;5.55;;
43527;SDS011;52359;42.658;23.320;2023-05-29T01:56:13;6.88;;;4.78;;
43527;SDS011;52359;42.658;23.320;2023-05-29T01:58:40;10.10;;;5.80;;
43527;SDS011;52359;42.658;23.320;2023-05-29T02:01:06;12.73;;;6.05;;
43527;SDS011;52359;42.658;23.320;2023-05-29T02:03:33;9.35;;;5.70;;
43527;SDS011;52359;42.658;23.320;2023-05-29T02:05:59;8.50;;;5.05;;
43527;SDS011;52359;42.658;23.320;2023-05-29T02:08:25;6.65;;;5.40;;
43527;SDS011;52359;42.658;23.320;2023-05-29T02:10:52;7.63;;;5.60;;
43527;SDS011;52359;42.658;23.320;2023-05-29T02:13:18;13.10;;;6.47;;
43527;SDS011;52359;42.658;23.320;2023-05-29T02:15:45;9.32;;;5.47;;
43527;SDS011;52359;42.658;23.320;2023-05-29T02:18:13;7.93;;;5.35;;
43527;SDS011;52359;42.658;23.320;2023-05-29T02:20:39;8.90;;;5.43;;
43527;SDS011;52359;42.658;23.320;2023-05-29T02:23:05;6.82;;;5.22;;
43527;SDS011;52359;42.658;23.320;2023-05-29T02:25:31;23.92;;;6.72;;
43527;SDS011;52359;42.658;23.320;2023-05-29T02:27:57;10.30;;;6.07;;
43527;SDS011;52359;42.658;23.320;2023-05-29T02:30:23;8.80;;;5.55;;
43527;SDS011;52359;42.658;23.320;2023-05-29T02:32:49;9.77;;;5.60;;
43527;SDS011;52359;42.658;23.320;2023-05-29T02:35:16;12.57;;;5.88;;
43527;SDS011;52359;42.658;23.320;2023-05-29T02:37:45;12.55;;;5.40;;
43527;SDS011;52359;42.658;23.320;2023-05-29T02:40:11;17.35;;;5.80;;
43527;SDS011;52359;42.658;23.320;2023-05-29T02:42:37;10.73;;;6.20;;
43527;SDS011;52359;42.658;23.320;2023-05-29T02:45:03;13.25;;;5.50;;
43527;SDS011;52359;42.658;23.320;2023-05-29T02:47:30;8.38;;;5.00;;
43527;SDS011;52359;42.658;23.320;2023-05-29T02:49:56;13.70;;;6.30;;
43527;SDS011;52359;42.658;23.320;2023-05-29T02:52:22;9.50;;;5.40;;
43527;SDS011;52359;42.658;23.320;2023-05-29T02:54:48;13.88;;;6.43;;
43527;SDS011;52359;42.658;23.320;2023-05-29T02:57:14;8.30;;;5.60;;
43527;SDS011;52359;42.658;23.320;2023-05-29T02:59:40;10.93;;;5.05;;
43527;SDS011;52359;42.658;23.320;2023-05-29T03:02:09;12.75;;;5.72;;
43527;SDS011;52359;42.658;23.320;2023-05-29T03:04:35;17.15;;;5.57;;
43527;SDS011;52359;42.658;23.320;2023-05-29T03:07:00;17.27;;;5.88;;
43527;SDS011;52359;42.658;23.320;2023-05-29T03:09:26;13.00;;;5.38;;
43527;SDS011;52359;42.658;23.320;2023-05-29T03:11:52;9.20;;;4.78;;
43527;SDS011;52359;42.658;23.320;2023-05-29T03:14:17;11.63;;;6.00;;
43527;SDS011;52359;42.658;23.320;2023-05-29T03:16:44;12.73;;;5.68;;
43527;SDS011;52359;42.658;23.320;2023-05-29T03:19:10;11.07;;;5.82;;
43527;SDS011;52359;42.658;23.320;2023-05-29T03:21:36;9.02;;;6.22;;
43527;SDS011;52359;42.658;23.320;2023-05-29T03:24:02;11.43;;;6.82;;
43527;SDS011;52359;42.658;23.320;2023-05-29T03:26:28;15.02;;;6.65;;
43527;SDS011;52359;42.658;23.320;2023-05-29T03:28:54;7.82;;;6.22;;
43527;SDS011;52359;42.658;23.320;2023-05-29T03:31:19;9.48;;;6.75;;
43527;SDS011;52359;42.658;23.320;2023-05-29T03:33:45;19.63;;;7.43;;
43527;SDS011;52359;42.658;23.320;2023-05-29T03:36:11;15.35;;;6.93;;
43527;SDS011;52359;42.658;23.320;2023-05-29T03:38:38;16.73;;;7.53;;
43527;SDS011;52359;42.658;23.320;2023-05-29T03:41:04;19.52;;;8.40;;
43527;SDS011;52359;42.658;23.320;2023-05-29T03:43:31;15.57;;;7.07;;
43527;SDS011;52359;42.658;23.320;2023-05-29T03:45:58;18.08;;;7.47;;
43527;SDS011;52359;42.658;23.320;2023-05-29T03:48:24;20.52;;;8.85;;
43527;SDS011;52359;42.658;23.320;2023-05-29T03:51:27;13.50;;;6.75;;
43527;SDS011;52359;42.658;23.320;2023-05-29T03:53:53;9.70;;;5.97;;
43527;SDS011;52359;42.658;23.320;2023-05-29T03:56:19;13.40;;;6.72;;
43527;SDS011;52359;42.658;23.320;2023-05-29T03:58:46;12.98;;;7.07;;
43527;SDS011;52359;42.658;23.320;2023-05-29T04:01:12;11.55;;;6.45;;
43527;SDS011;52359;42.658;23.320;2023-05-29T04:03:38;11.40;;;6.75;;
43527;SDS011;52359;42.658;23.320;2023-05-29T04:06:04;13.52;;;7.18;;
43527;SDS011;52359;42.658;23.320;2023-05-29T04:08:30;11.30;;;7.05;;
43527;SDS011;52359;42.658;23.320;2023-05-29T04:10:56;12.18;;;6.88;;
43527;SDS011;52359;42.658;23.320;2023-05-29T04:13:59;8.73;;;5.82;;
43527;SDS011;52359;42.658;23.320;2023-05-29T04:16:39;10.63;;;6.40;;
43527;SDS011;52359;42.658;23.320;2023-05-29T04:19:24;13.75;;;5.53;;
43527;SDS011;52359;42.658;23.320;2023-05-29T04:21:52;11.32;;;5.40;;
43527;SDS011;52359;42.658;23.320;2023-05-29T04:24:35;12.65;;;6.03;;
43527;SDS011;52359;42.658;23.320;2023-05-29T04:27:36;48.65;;;8.20;;
43527;SDS011;52359;42.658;23.320;2023-05-29T04:30:06;60.35;;;11.02;;
43527;SDS011;52359;42.658;23.320;2023-05-29T04:32:32;49.42;;;10.18;;
43527;SDS011;52359;42.658;23.320;2023-05-29T04:35:02;51.22;;;11.15;;
43527;SDS011;52359;42.658;23.320;2023-05-29T04:37:40;36.45;;;9.73;;
43527;SDS011;52359;42.658;23.320;2023-05-29T04:40:06;26.23;;;7.78;;
43527;SDS011;52359;42.658;23.320;2023-05-29T04:43:05;20.15;;;7.40;;
43527;SDS011;52359;42.658;23.320;2023-05-29T04:45:31;20.58;;;8.00;;
43527;SDS011;52359;42.658;23.320;2023-05-29T04:47:57;18.73;;;8.07;;
43527;SDS011;52359;42.658;23.320;2023-05-29T04:50:23;17.02;;;8.18;;
43527;SDS011;52359;42.658;23.320;2023-05-29T04:52:49;22.33;;;8.32;;
43527;SDS011;52359;42.658;23.320;2023-05-29T04:55:16;17.83;;;9.10;;
43527;SDS011;52359;42.658;23.320;2023-05-29T04:57:42;21.23;;;8.23;;
43527;SDS011;52359;42.658;23.320;2023-05-29T05:00:08;17.80;;;7.07;;
43527;SDS011;52359;42.658;23.320;2023-05-29T05:02:36;26.20;;;8.32;;
43527;SDS011;52359;42.658;23.320;2023-05-29T05:05:02;17.38;;;6.95;;
43527;SDS011;52359;42.658;23.320;2023-05-29T05:07:28;11.90;;;6.38;;
43527;SDS011;52359;42.658;23.320;2023-05-29T05:09:54;16.52;;;6.68;;
43527;SDS011;52359;42.658;23.320;2023-05-29T05:12:20;11.90;;;5.28;;
43527;SDS011;52359;42.658;23.320;2023-05-29T05:14:46;7.65;;;4.93;;
43527;SDS011;52359;42.658;23.320;2023-05-29T05:17:11;11.60;;;5.55;;
43527;SDS011;52359;42.658;23.320;2023-05-29T05:19:37;10.93;;;5.35;;
43527;SDS011;52359;42.658;23.320;2023-05-29T05:22:03;8.43;;;5.22;;
43527;SDS011;52359;42.658;23.320;2023-05-29T05:24:28;18.40;;;6.40;;
43527;SDS011;52359;42.658;23.320;2023-05-29T05:26:54;18.45;;;5.50;;
43527;SDS011;52359;42.658;23.320;2023-05-29T05:29:20;20.35;;;5.72;;
43527;SDS011;52359;42.658;23.320;2023-05-29T05:31:45;20.80;;;7.10;;
43527;SDS011;52359;42.658;23.320;2023-05-29T05:34:11;15.00;;;5.90;;
43527;SDS011;52359;42.658;23.320;2023-05-29T05:36:37;9.40;;;5.63;;
43527;SDS011;52359;42.658;23.320;2023-05-29T05:39:02;14.38;;;5.97;;
43527;SDS011;52359;42.658;23.320;2023-05-29T05:41:28;20.80;;;6.30;;
43527;SDS011;52359;42.658;23.320;2023-05-29T05:43:54;20.60;;;5.95;;
43527;SDS011;52359;42.658;23.320;2023-05-29T05:46:22;13.20;;;5.13;;
43527;SDS011;52359;42.658;23.320;2023-05-29T05:48:50;11.88;;;5.60;;
43527;SDS011;52359;42.658;23.320;2023-05-29T05:51:23;14.85;;;5.28;;
43527;SDS011;52359;42.658;23.320;2023-05-29T05:53:55;18.03;;;5.40;;
43527;SDS011;52359;42.658;23.320;2023-05-29T05:56:21;27.23;;;4.63;;
43527;SDS011;52359;42.658;23.320;2023-05-29T05:58:47;23.35;;;6.63;;
43527;SDS011;52359;42.658;23.320;2023-05-29T06:01:15;24.13;;;8.25;;
43527;SDS011;52359;42.658;23.320;2023-05-29T06:03:41;25.90;;;6.82;;
43527;SDS011;52359;42.658;23.320;2023-05-29T06:06:07;9.02;;;5.60;;
43527;SDS011;52359;42.658;23.320;2023-05-29T06:08:33;23.70;;;5.80;;
43527;SDS011;52359;42.658;23.320;2023-05-29T06:11:00;18.17;;;7.05;;
43527;SDS011;52359;42.658;23.320;2023-05-29T06:13:29;11.18;;;4.80;;
43527;SDS011;52359;42.658;23.320;2023-05-29T06:15:56;11.18;;;5.10;;
43527;SDS011;52359;42.658;23.320;2023-05-29T06:18:23;9.18;;;4.50;;
43527;SDS011;52359;42.658;23.320;2023-05-29T06:21:37;7.47;;;4.63;;
43527;SDS011;52359;42.658;23.320;2023-05-29T06:24:03;13.40;;;4.55;;
43527;SDS011;52359;42.658;23.320;2023-05-29T06:26:29;13.82;;;4.75;;
43527;SDS011;52359;42.658;23.320;2023-05-29T06:28:55;7.80;;;3.83;;
43527;SDS011;52359;42.658;23.320;2023-05-29T06:31:21;11.57;;;3.72;;
43527;SDS011;52359;42.658;23.320;2023-05-29T06:33:47;5.82;;;4.13;;
43527;SDS011;52359;42.658;23.320;2023-05-29T06:36:13;8.63;;;4.05;;
43527;SDS011;52359;42.658;23.320;2023-05-29T06:38:39;5.97;;;2.83;;
43527;SDS011;52359;42.658;23.320;2023-05-29T06:41:05;8.32;;;2.95;;
43527;SDS011;52359;42.658;23.320;2023-05-29T06:43:31;5.50;;;3.35;;
43527;SDS011;52359;42.658;23.320;2023-05-29T06:45:58;16.90;;;3.13;;
43527;SDS011;52359;42.658;23.320;2023-05-29T06:48:24;19.58;;;3.92;;
43527;SDS011;52359;42.658;23.320;2023-05-29T06:50:50;15.60;;;3.63;;
43527;SDS011;52359;42.658;23.320;2023-05-29T06:53:16;10.30;;;3.60;;
43527;SDS011;52359;42.658;23.320;2023-05-29T06:55:42;6.00;;;2.83;;
43527;SDS011;52359;42.658;23.320;2023-05-29T06:58:08;9.23;;;3.08;;
43527;SDS011;52359;42.658;23.320;2023-05-29T07:00:34;3.03;;;2.20;;
43527;SDS011;52359;42.658;23.320;2023-05-29T07:03:00;4.25;;;2.42;;
43527;SDS011;52359;42.658;23.320;2023-05-29T07:05:26;8.88;;;2.40;;
43527;SDS011;52359;42.658;23.320;2023-05-29T07:07:52;5.15;;;2.50;;
43527;SDS011;52359;42.658;23.320;2023-05-29T07:10:18;4.97;;;2.60;;
43527;SDS011;52359;42.658;23.320;2023-05-29T07:12:44;14.63;;;2.85;;
43527;SDS011;52359;42.658;23.320;2023-05-29T07:15:10;4.93;;;2.90;;
43527;SDS011;52359;42.658;23.320;2023-05-29T07:17:35;10.23;;;3.08;;
43527;SDS011;52359;42.658;23.320;2023-05-29T07:20:01;5.63;;;2.92;;
43527;SDS011;52359;42.658;23.320;2023-05-29T07:22:27;2.67;;;2.35;;
43527;SDS011;52359;42.658;23.320;2023-05-29T07:24:52;5.47;;;2.22;;
43527;SDS011;52359;42.658;23.320;2023-05-29T07:27:18;6.78;;;1.95;;
43527;SDS011;52359;42.658;23.320;2023-05-29T07:29:44;15.13;;;3.55;;
43527;SDS011;52359;42.658;23.320;2023-05-29T07:32:09;13.00;;;4.72;;
43527;SDS011;52359;42.658;23.320;2023-05-29T07:34:35;7.90;;;3.10;;
43527;SDS011;52359;42.658;23.320;2023-05-29T07:37:05;4.45;;;2.60;;
43527;SDS011;52359;42.658;23.320;2023-05-29T07:39:32;6.35;;;2.33;;
43527;SDS011;52359;42.658;23.320;2023-05-29T07:41:59;5.45;;;2.22;;
43527;SDS011;52359;42.658;23.320;2023-05-29T07:44:26;21.40;;;3.15;;
43527;SDS011;52359;42.658;23.320;2023-05-29T07:46:52;3.60;;;2.60;;
43527;SDS011;52359;42.658;23.320;2023-05-29T07:49:19;8.98;;;2.83;;
43527;SDS011;52359;42.658;23.320;2023-05-29T07:51:44;4.32;;;2.60;;
43527;SDS011;52359;42.658;23.320;2023-05-29T07:54:10;6.28;;;2.40;;
43527;SDS011;52359;42.658;23.320;2023-05-29T07:56:36;5.10;;;2.97;;
43527;SDS011;52359;42.658;23.320;2023-05-29T07:59:03;4.53;;;3.38;;
43527;SDS011;52359;42.658;23.320;2023-05-29T08:01:29;6.70;;;3.20;;
43527;SDS011;52359;42.658;23.320;2023-05-29T08:03:55;5.68;;;2.92;;
43527;SDS011;52359;42.658;23.320;2023-05-29T08:06:20;7.13;;;2.83;;
43527;SDS011;52359;42.658;23.320;2023-05-29T08:08:46;13.65;;;2.90;;
43527;SDS011;52359;42.658;23.320;2023-05-29T08:11:12;4.72;;;3.08;;
43527;SDS011;52359;42.658;23.320;2023-05-29T08:13:38;7.47;;;3.47;;
43527;SDS011;52359;42.658;23.320;2023-05-29T08:16:04;6.20;;;3.20;;
43527;SDS011;52359;42.658;23.320;2023-05-29T08:18:30;10.70;;;2.70;;
43527;SDS011;52359;42.658;23.320;2023-05-29T08:20:57;4.22;;;2.72;;
43527;SDS011;52359;42.658;23.320;2023-05-29T08:23:23;6.63;;;2.28;;
43527;SDS011;52359;42.658;23.320;2023-05-29T08:25:49;9.48;;;2.85;;
43527;SDS011;52359;42.658;23.320;2023-05-29T08:28:15;7.53;;;2.45;;
43527;SDS011;52359;42.658;23.320;2023-05-29T08:30:41;4.60;;;3.25;;
43527;SDS011;52359;42.658;23.320;2023-05-29T08:33:07;7.95;;;3.67;;
43527;SDS011;52359;42.658;23.320;2023-05-29T08:35:33;3.28;;;2.55;;
43527;SDS011;52359;42.658;23.320;2023-05-29T08:37:59;3.55;;;2.42;;
43527;SDS011;52359;42.658;23.320;2023-05-29T08:40:25;7.15;;;2.88;;
43527;SDS011;52359;42.658;23.320;2023-05-29T08:42:51;4.05;;;2.33;;
43527;SDS011;52359;42.658;23.320;2023-05-29T08:45:33;4.65;;;2.67;;
43527;SDS011;52359;42.658;23.320;2023-05-29T08:48:02;2.20;;;2.10;;
43527;SDS011;52359;42.658;23.320;2023-05-29T08:50:28;3.15;;;2.72;;
43527;SDS011;52359;42.658;23.320;2023-05-29T08:52:54;7.00;;;3.22;;
43527;SDS011;52359;42.658;23.320;2023-05-29T08:55:21;8.57;;;3.33;;
43527;SDS011;52359;42.658;23.320;2023-05-29T08:57:47;5.38;;;2.70;;
43527;SDS011;52359;42.658;23.320;2023-05-29T09:00:15;4.70;;;3.30;;
43527;SDS011;52359;42.658;23.320;2023-05-29T09:02:43;4.95;;;2.40;;
43527;SDS011;52359;42.658;23.320;2023-05-29T09:05:09;5.07;;;2.92;;
43527;SDS011;52359;42.658;23.320;2023-05-29T09:07:37;3.90;;;2.50;;
43527;SDS011;52359;42.658;23.320;2023-05-29T09:10:15;2.80;;;2.40;;
43527;SDS011;52359;42.658;23.320;2023-05-29T09:12:42;4.60;;;2.47;;
43527;SDS011;52359;42.658;23.320;2023-05-29T09:15:17;4.25;;;2.20;;
43527;SDS011;52359;42.658;23.320;2023-05-29T09:17:44;4.50;;;2.50;;
43527;SDS011;52359;42.658;23.320;2023-05-29T09:20:16;7.00;;;2.85;;
43527;SDS011;52359;42.658;23.320;2023-05-29T09:22:46;7.35;;;2.47;;
43527;SDS011;52359;42.658;23.320;2023-05-29T09:25:12;9.70;;;2.70;;
43527;SDS011;52359;42.658;23.320;2023-05-29T09:27:38;5.43;;;2.70;;
43527;SDS011;52359;42.658;23.320;2023-05-29T09:30:05;5.05;;;2.83;;
43527;SDS011;52359;42.658;23.320;2023-05-29T09:32:32;5.25;;;2.70;;
43527;SDS011;52359;42.658;23.320;2023-05-29T09:34:59;7.38;;;2.75;;
43527;SDS011;52359;42.658;23.320;2023-05-29T09:37:26;14.02;;;3.50;;
43527;SDS011;52359;42.658;23.320;2023-05-29T09:39:52;25.38;;;7.50;;
43527;SDS011;52359;42.658;23.320;2023-05-29T09:42:17;7.13;;;3.75;;
43527;SDS011;52359;42.658;23.320;2023-05-29T09:44:50;10.68;;;3.58;;
43527;SDS011;52359;42.658;23.320;2023-05-29T09:47:18;8.75;;;3.97;;
43527;SDS011;52359;42.658;23.320;2023-05-29T09:49:45;5.72;;;3.30;;
43527;SDS011;52359;42.658;23.320;2023-05-29T09:52:14;8.65;;;4.68;;
43527;SDS011;52359;42.658;23.320;2023-05-29T09:54:45;13.73;;;3.35;;
43527;SDS011;52359;42.658;23.320;2023-05-29T09:57:16;5.72;;;3.35;;
43527;SDS011;52359;42.658;23.320;2023-05-29T09:59:43;4.15;;;2.97;;
43527;SDS011;52359;42.658;23.320;2023-05-29T10:02:16;4.97;;;2.90;;
43527;SDS011;52359;42.658;23.320;2023-05-29T10:04:43;5.75;;;2.70;;
43527;SDS011;52359;42.658;23.320;2023-05-29T10:07:14;3.33;;;2.53;;
43527;SDS011;52359;42.658;23.320;2023-05-29T10:09:42;19.65;;;5.93;;
43527;SDS011;52359;42.658;23.320;2023-05-29T10:12:11;9.25;;;3.53;;
43527;SDS011;52359;42.658;23.320;2023-05-29T10:14:37;11.70;;;4.05;;
43527;SDS011;52359;42.658;23.320;2023-05-29T10:17:05;4.40;;;3.00;;
43527;SDS011;52359;42.658;23.320;2023-05-29T10:19:33;13.63;;;4.50;;
43527;SDS011;52359;42.658;23.320;2023-05-29T10:22:01;15.15;;;3.80;;
43527;SDS011;52359;42.658;23.320;2023-05-29T10:24:28;10.98;;;4.43;;
43527;SDS011;52359;42.658;23.320;2023-05-29T10:26:55;9.38;;;4.03;;
43527;SDS011;52359;42.658;23.320;2023-05-29T10:29:26;11.57;;;3.30;;
43527;SDS011;52359;42.658;23.320;2023-05-29T10:34:29;14.68;;;3.88;;
43527;SDS011;52359;42.658;23.320;2023-05-29T10:37:18;9.93;;;2.70;;
43527;SDS011;52359;42.658;23.320;2023-05-29T10:39:47;3.70;;;2.53;;
43527;SDS011;52359;42.658;23.320;2023-05-29T10:44:58;7.18;;;3.10;;
43527;SDS011;52359;42.658;23.320;2023-05-29T10:47:24;5.60;;;3.33;;
43527;SDS011;52359;42.658;23.320;2023-05-29T10:49:50;16.67;;;3.78;;
43527;SDS011;52359;42.658;23.320;2023-05-29T10:52:18;3.88;;;2.88;;
43527;SDS011;52359;42.658;23.320;2023-05-29T10:54:52;8.50;;;3.30;;
43527;SDS011;52359;42.658;23.320;2023-05-29T10:57:20;5.07;;;2.88;;
43527;SDS011;52359;42.658;23.320;2023-05-29T10:59:47;7.47;;;2.85;;
43527;SDS011;52359;42.658;23.320;2023-05-29T11:02:17;4.80;;;2.85;;
43527;SDS011;52359;42.658;23.320;2023-05-29T11:04:44;6.07;;;2.67;;
43527;SDS011;52359;42.658;23.320;2023-05-29T11:07:39;5.07;;;3.10;;
43527;SDS011;52359;42.658;23.320;2023-05-29T11:10:18;13.50;;;3.67;;
43527;SDS011;52359;42.658;23.320;2023-05-29T11:13:04;5.90;;;2.78;;
43527;SDS011;52359;42.658;23.320;2023-05-29T11:15:32;6.30;;;3.33;;
43527;SDS011;52359;42.658;23.320;2023-05-29T11:18:08;6.85;;;2.80;;
43527;SDS011;52359;42.658;23.320;2023-05-29T11:20:53;4.88;;;2.80;;
43527;SDS011;52359;42.658;23.320;2023-05-29T11:23:22;8.73;;;3.50;;
43527;SDS011;52359;42.658;23.320;2023-05-29T11:25:50;4.88;;;2.90;;
43527;SDS011;52359;42.658;23.320;2023-05-29T11:28:16;4.53;;;3.50;;
43527;SDS011;52359;42.658;23.320;2023-05-29T11:30:46;8.32;;;3.97;;
43527;SDS011;52359;42.658;23.320;2023-05-29T11:33:15;5.20;;;4.15;;
43527;SDS011;52359;42.658;23.320;2023-05-29T11:35:44;8.32;;;4.15;;
43527;SDS011;52359;42.658;23.320;2023-05-29T11:38:11;9.55;;;3.70;;
43527;SDS011;52359;42.658;23.320;2023-05-29T11:40:37;5.82;;;4.13;;
43527;SDS011;52359;42.658;23.320;2023-05-29T11:43:03;12.98;;;4.45;;
43527;SDS011;52359;42.658;23.320;2023-05-29T11:45:31;11.70;;;3.28;;
43527;SDS011;52359;42.658;23.320;2023-05-29T11:47:59;5.65;;;3.15;;
43527;SDS011;52359;42.658;23.320;2023-05-29T11:50:26;7.03;;;3.25;;
43527;SDS011;52359;42.658;23.320;2023-05-29T11:52:52;8.95;;;3.35;;
43527;SDS011;52359;42.658;23.320;2023-05-29T11:55:18;7.30;;;3.17;;
43527;SDS011;52359;42.658;23.320;2023-05-29T11:57:48;5.72;;;4.85;;
43527;SDS011;52359;42.658;23.320;2023-05-29T12:00:15;5.80;;;3.78;;
43527;SDS011;52359;42.658;23.320;2023-05-29T12:02:42;4.28;;;2.67;;
43527;SDS011;52359;42.658;23.320;2023-05-29T12:05:08;9.50;;;3.28;;
43527;SDS011;52359;42.658;23.320;2023-05-29T12:07:35;6.63;;;3.97;;
43527;SDS011;52359;42.658;23.320;2023-05-29T12:10:14;6.90;;;3.55;;
43527;SDS011;52359;42.658;23.320;2023-05-29T12:12:40;5.80;;;4.07;;
43527;SDS011;52359;42.658;23.320;2023-05-29T12:15:07;8.75;;;3.28;;
43527;SDS011;52359;42.658;23.320;2023-05-29T12:17:33;7.45;;;3.53;;
43527;SDS011;52359;42.658;23.320;2023-05-29T12:20:00;7.55;;;3.15;;
43527;SDS011;52359;42.658;23.320;2023-05-29T12:22:32;6.28;;;3.80;;
43527;SDS011;52359;42.658;23.320;2023-05-29T12:25:44;3.92;;;2.65;;
43527;SDS011;52359;42.658;23.320;2023-05-29T12:27:49;4.40;;;2.40;;
43527;SDS011;52359;42.658;23.320;2023-05-29T12:32:46;4.25;;;3.17;;
43527;SDS011;52359;42.658;23.320;2023-05-29T12:40:29;8.98;;;3.67;;
43527;SDS011;52359;42.658;23.320;2023-05-29T12:42:56;11.98;;;5.05;;
43527;SDS011;52359;42.658;23.320;2023-05-29T12:45:27;4.55;;;3.72;;
43527;SDS011;52359;42.658;23.320;2023-05-29T12:47:56;10.98;;;3.95;;
43527;SDS011;52359;42.658;23.320;2023-05-29T12:50:23;6.50;;;4.05;;
43527;SDS011;52359;42.658;23.320;2023-05-29T12:55:22;8.18;;;3.47;;
43527;SDS011;52359;42.658;23.320;2023-05-29T12:57:48;5.40;;;2.88;;
43527;SDS011;52359;42.658;23.320;2023-05-29T13:00:15;5.97;;;4.20;;
43527;SDS011;52359;42.658;23.320;2023-05-29T13:02:41;7.32;;;3.90;;
43527;SDS011;52359;42.658;23.320;2023-05-29T13:05:07;5.18;;;3.65;;
43527;SDS011;52359;42.658;23.320;2023-05-29T13:07:33;5.88;;;3.33;;
43527;SDS011;52359;42.658;23.320;2023-05-29T13:09:59;3.72;;;2.90;;
43527;SDS011;52359;42.658;23.320;2023-05-29T13:12:27;4.78;;;2.92;;
43527;SDS011;52359;42.658;23.320;2023-05-29T13:14:53;5.18;;;3.35;;
43527;SDS011;52359;42.658;23.320;2023-05-29T13:17:21;13.40;;;4.28;;
43527;SDS011;52359;42.658;23.320;2023-05-29T13:19:47;5.60;;;3.28;;
43527;SDS011;52359;42.658;23.320;2023-05-29T13:22:13;8.45;;;3.42;;
43527;SDS011;52359;42.658;23.320;2023-05-29T13:24:40;9.57;;;3.55;;
43527;SDS011;52359;42.658;23.320;2023-05-29T13:27:06;4.03;;;3.58;;
43527;SDS011;52359;42.658;23.320;2023-05-29T13:29:32;3.90;;;3.47;;
43527;SDS011;52359;42.658;23.320;2023-05-29T13:31:58;4.72;;;3.42;;
43527;SDS011;52359;42.658;23.320;2023-05-29T13:34:24;7.50;;;3.25;;
43527;SDS011;52359;42.658;23.320;2023-05-29T13:36:54;4.07;;;3.33;;
43527;SDS011;52359;42.658;23.320;2023-05-29T13:39:20;5.97;;;3.70;;
43527;SDS011;52359;42.658;23.320;2023-05-29T13:41:46;9.15;;;4.63;;
43527;SDS011;52359;42.658;23.320;2023-05-29T13:44:12;8.18;;;4.00;;
43527;SDS011;52359;42.658;23.320;2023-05-29T13:46:38;6.68;;;4.20;;
43527;SDS011;52359;42.658;23.320;2023-05-29T13:49:04;6.85;;;4.57;;
43527;SDS011;52359;42.658;23.320;2023-05-29T13:51:32;13.23;;;4.40;;
43527;SDS011;52359;42.658;23.320;2023-05-29T13:53:58;6.35;;;3.78;;
43527;SDS011;52359;42.658;23.320;2023-05-29T13:56:24;7.13;;;3.80;;
43527;SDS011;52359;42.658;23.320;2023-05-29T13:58:53;7.57;;;3.97;;
43527;SDS011;52359;42.658;23.320;2023-05-29T14:01:19;7.38;;;4.03;;
43527;SDS011;52359;42.658;23.320;2023-05-29T14:03:46;4.03;;;3.38;;
43527;SDS011;52359;42.658;23.320;2023-05-29T14:06:12;20.08;;;5.03;;
43527;SDS011;52359;42.658;23.320;2023-05-29T14:08:38;5.63;;;3.88;;
43527;SDS011;52359;42.658;23.320;2023-05-29T14:11:04;8.02;;;4.05;;
43527;SDS011;52359;42.658;23.320;2023-05-29T14:13:30;6.20;;;3.95;;
43527;SDS011;52359;42.658;23.320;2023-05-29T14:15:56;7.10;;;4.05;;
43527;SDS011;52359;42.658;23.320;2023-05-29T14:18:22;6.32;;;3.47;;
43527;SDS011;52359;42.658;23.320;2023-05-29T14:20:48;8.10;;;2.45;;
43527;SDS011;52359;42.658;23.320;2023-05-29T14:23:17;4.80;;;2.35;;
43527;SDS011;52359;42.658;23.320;2023-05-29T14:25:44;5.35;;;2.03;;
43527;SDS011;52359;42.658;23.320;2023-05-29T14:28:10;4.03;;;2.97;;
43527;SDS011;52359;42.658;23.320;2023-05-29T14:30:36;9.85;;;2.65;;
43527;SDS011;52359;42.658;23.320;2023-05-29T14:33:02;5.68;;;2.45;;
43527;SDS011;52359;42.658;23.320;2023-05-29T14:35:28;17.00;;;2.95;;
43527;SDS011;52359;42.658;23.320;2023-05-29T14:37:55;14.32;;;3.63;;
43527;SDS011;52359;42.658;23.320;2023-05-29T14:40:21;2.13;;;1.98;;
43527;SDS011;52359;42.658;23.320;2023-05-29T14:42:47;9.07;;;2.03;;
43527;SDS011;52359;42.658;23.320;2023-05-29T14:45:12;4.75;;;1.33;;
43527;SDS011;52359;42.658;23.320;2023-05-29T14:47:40;4.88;;;1.70;;
43527;SDS011;52359;42.658;23.320;2023-05-29T14:50:06;8.75;;;1.88;;
43527;SDS011;52359;42.658;23.320;2023-05-29T14:52:32;9.35;;;1.90;;
43527;SDS011;52359;42.658;23.320;2023-05-29T14:55:00;2.97;;;1.77;;
43527;SDS011;52359;42.658;23.320;2023-05-29T14:57:29;6.72;;;1.55;;